Time,TemperatureF,DewpointF,PressureIn,WindDirection,WindDirectionDegrees,WindSpeedMPH,WindSpeedGustMPH,Humidity,HourlyPrecipIn,Conditions,Clouds,dailyrainin,SoftwareType,DateUTC
2013-03-03 00:09:00,27.9,20.0,30.09,NW,319,4.0,-999.0,73,-99.99,,,0.00,weatherlink.com 1.10,2013-03-03 05:09:00,
2013-03-03 00:24:00,27.9,21.0,30.09,NW,325,4.0,-999.0,74,-99.99,,,0.00,weatherlink.com 1.10,2013-03-03 05:24:00,
2013-03-03 00:39:00,27.9,20.0,30.09,NW,312,7.0,-999.0,73,-99.99,,,0.00,weatherlink.com 1.10,2013-03-03 05:39:00,
2013-03-03 00:54:00,27.7,20.0,30.09,NNW,328,3.0,-999.0,74,-99.99,,,0.00,weatherlink.com 1.10,2013-03-03 05:54:00,
2013-03-03 01:09:00,27.6,20.0,30.09,WNW,301,3.0,-999.0,74,-99.99,,,0.00,weatherlink.com 1.10,2013-03-03 06:09:00,
2013-03-03 01:24:00,27.6,20.0,30.09,NW,309,6.0,-999.0,74,-99.99,,,0.00,weatherlink.com 1.10,2013-03-03 06:24:00,
2013-03-03 01:39:00,27.5,20.0,30.09,NW,326,3.0,-999.0,72,-99.99,,,0.00,weatherlink.com 1.10,2013-03-03 06:39:00,
2013-03-03 01:54:00,27.4,19.0,30.09,NW,325,10.0,-999.0,72,-99.99,,,0.00,weatherlink.com 1.10,2013-03-03 06:54:00,
2013-03-03 02:10:00,27.2,19.0,30.09,NW,324,3.0,-999.0,71,-99.99,,,0.00,weatherlink.com 1.10,2013-03-03 07:10:00,
2013-03-03 02:25:00,27.0,19.0,30.09,NW,325,5.0,-999.0,71,-99.99,,,0.00,weatherlink.com 1.10,2013-03-03 07:25:00,
2013-03-03 02:40:00,26.8,19.0,30.08,NNW,339,3.0,-999.0,71,-99.99,,,0.00,weatherlink.com 1.10,2013-03-03 07:40:00,
2013-03-03 02:55:00,26.7,18.0,30.08,NNW,344,5.0,-999.0,71,-99.99,,,0.00,weatherlink.com 1.10,2013-03-03 07:55:00,
2013-03-03 03:10:00,26.5,18.0,30.08,NNW,342,2.0,-999.0,71,-99.99,,,0.00,weatherlink.com 1.10,2013-03-03 08:10:00,
2013-03-03 03:25:00,26.2,17.0,30.07,NW,323,3.0,-999.0,69,-99.99,,,0.00,weatherlink.com 1.10,2013-03-03 08:25:00,
2013-03-03 03:40:00,26.1,18.0,30.07,NNW,328,5.0,-999.0,70,-99.99,,,0.00,weatherlink.com 1.10,2013-03-03 08:40:00,
2013-03-03 03:55:00,25.9,18.0,30.07,NNW,339,2.0,-999.0,72,-99.99,,,0.00,weatherlink.com 1.10,2013-03-03 08:55:00,
2013-03-03 04:10:00,25.8,18.0,30.07,NNW,340,3.0,-999.0,73,-99.99,,,0.00,weatherlink.com 1.10,2013-03-03 09:10:00,
2013-03-03 04:25:00,25.5,18.0,30.07,NNW,338,0.0,-999.0,72,-99.99,,,0.00,weatherlink.com 1.10,2013-03-03 09:25:00,
2013-03-03 04:40:00,25.3,18.0,30.07,NNW,348,2.0,-999.0,74,-99.99,,,0.00,weatherlink.com 1.10,2013-03-03 09:40:00,
2013-03-03 04:56:00,25.1,18.0,30.07,NNW,342,5.0,-999.0,73,-99.99,,,0.00,weatherlink.com 1.10,2013-03-03 09:56:00,
2013-03-03 05:11:00,24.9,17.0,30.07,North,360,3.0,-999.0,73,-99.99,,,0.00,weatherlink.com 1.10,2013-03-03 10:11:00,
2013-03-03 05:26:00,24.7,17.0,30.07,NNE,14,6.0,-999.0,73,-99.99,,,0.00,weatherlink.com 1.10,2013-03-03 10:26:00,
2013-03-03 05:41:00,24.5,17.0,30.07,North,360,7.0,-999.0,73,-99.99,,,0.00,weatherlink.com 1.10,2013-03-03 10:41:00,
2013-03-03 05:56:00,24.0,16.0,30.07,NNW,342,1.0,-999.0,72,-99.99,,,0.00,weatherlink.com 1.10,2013-03-03 10:56:00,
2013-03-03 06:11:00,23.6,16.0,30.08,North,349,7.0,-999.0,73,-99.99,,,0.00,weatherlink.com 1.10,2013-03-03 11:11:00,
2013-03-03 06:26:00,23.2,16.0,30.08,NNW,344,3.0,-999.0,74,-99.99,,,0.00,weatherlink.com 1.10,2013-03-03 11:26:00,
2013-03-03 06:41:00,23.0,16.0,30.09,NNW,336,2.0,-999.0,75,-99.99,,,0.00,weatherlink.com 1.10,2013-03-03 11:41:00,
2013-03-03 06:56:00,22.9,16.0,30.09,NNW,336,3.0,-999.0,75,-99.99,,,0.00,weatherlink.com 1.10,2013-03-03 11:56:00,
2013-03-03 07:11:00,22.8,16.0,30.09,NNW,337,2.0,-999.0,75,-99.99,,,0.00,weatherlink.com 1.10,2013-03-03 12:11:00,
2013-03-03 07:26:00,22.7,16.0,30.09,NNW,332,1.0,-999.0,76,-99.99,,,0.00,weatherlink.com 1.10,2013-03-03 12:26:00,
2013-03-03 07:42:00,23.1,17.0,30.10,NNW,332,1.0,-999.0,76,-99.99,,,0.00,weatherlink.com 1.10,2013-03-03 12:42:00,
2013-03-03 07:57:00,23.3,17.0,30.10,NNW,327,3.0,-999.0,77,-99.99,,,0.00,weatherlink.com 1.10,2013-03-03 12:57:00,
2013-03-03 08:12:00,23.7,17.0,30.10,NW,323,3.0,-999.0,74,-99.99,,,0.00,weatherlink.com 1.10,2013-03-03 13:12:00,
2013-03-03 08:27:00,23.9,16.0,30.10,NNW,346,4.0,-999.0,72,-99.99,,,0.00,weatherlink.com 1.10,2013-03-03 13:27:00,
2013-03-03 08:42:00,24.5,17.0,30.11,NNW,338,3.0,-999.0,73,-99.99,,,0.00,weatherlink.com 1.10,2013-03-03 13:42:00,
2013-03-03 08:57:00,25.1,17.0,30.11,NNW,327,2.0,-999.0,72,-99.99,,,0.00,weatherlink.com 1.10,2013-03-03 13:57:00,
2013-03-03 09:12:00,24.8,17.0,30.10,NNW,333,2.0,-999.0,71,-99.99,,,0.00,weatherlink.com 1.10,2013-03-03 14:12:00,
2013-03-03 09:27:00,25.4,18.0,30.10,North,350,1.0,-999.0,72,-99.99,,,0.00,weatherlink.com 1.10,2013-03-03 14:27:00,
2013-03-03 09:42:00,25.5,17.0,30.10,NW,324,7.0,-999.0,71,-99.99,,,0.00,weatherlink.com 1.10,2013-03-03 14:42:00,
2013-03-03 09:57:00,25.8,18.0,30.11,NW,325,4.0,-999.0,72,-99.99,,,0.00,weatherlink.com 1.10,2013-03-03 14:57:00,
2013-03-03 10:12:00,25.4,19.0,30.10,NNW,340,7.0,-999.0,75,-99.99,,,0.00,weatherlink.com 1.10,2013-03-03 15:12:00,
2013-03-03 10:27:00,27.0,19.0,30.10,NW,325,2.0,-999.0,71,-99.99,,,0.00,weatherlink.com 1.10,2013-03-03 15:27:00,
2013-03-03 10:42:00,26.3,18.0,30.10,NW,311,4.0,-999.0,72,-99.99,,,0.00,weatherlink.com 1.10,2013-03-03 15:42:00,
2013-03-03 10:58:00,28.1,19.0,30.10,NW,307,6.0,-999.0,70,-99.99,,,0.00,weatherlink.com 1.10,2013-03-03 15:58:00,
2013-03-03 11:13:00,28.0,20.0,30.10,NW,321,4.0,-999.0,72,-99.99,,,0.00,weatherlink.com 1.10,2013-03-03 16:13:00,
2013-03-03 11:28:00,27.7,20.0,30.09,NNW,331,2.0,-999.0,73,-99.99,,,0.00,weatherlink.com 1.10,2013-03-03 16:28:00,
2013-03-03 11:43:00,28.4,20.0,30.09,NW,325,0.0,-999.0,72,-99.99,,,0.00,weatherlink.com 1.10,2013-03-03 16:43:00,
2013-03-03 11:58:00,29.8,21.0,30.09,NW,319,6.0,-999.0,69,-99.99,,,0.00,weatherlink.com 1.10,2013-03-03 16:58:00,
2013-03-03 12:13:00,29.6,20.0,30.09,NNW,330,5.0,-999.0,67,-99.99,,,0.00,weatherlink.com 1.10,2013-03-03 17:13:00,
2013-03-03 12:28:00,29.8,20.0,30.08,NNW,331,10.0,-999.0,68,-99.99,,,0.00,weatherlink.com 1.10,2013-03-03 17:28:00,
2013-03-03 12:43:00,29.1,19.0,30.08,NW,325,6.0,-999.0,65,-99.99,,,0.00,weatherlink.com 1.10,2013-03-03 17:43:00,
2013-03-03 12:58:00,30.4,20.0,30.07,NNW,344,7.0,-999.0,66,-99.99,,,0.00,weatherlink.com 1.10,2013-03-03 17:58:00,
2013-03-03 13:13:00,31.3,20.0,30.07,NNW,342,5.0,-999.0,63,-99.99,,,0.00,weatherlink.com 1.10,2013-03-03 18:13:00,
2013-03-03 13:28:00,33.3,19.0,30.06,WNW,296,7.0,-999.0,57,-99.99,,,0.00,weatherlink.com 1.10,2013-03-03 18:28:00,
2013-03-03 13:44:00,31.9,20.0,30.06,NW,319,4.0,-999.0,61,-99.99,,,0.00,weatherlink.com 1.10,2013-03-03 18:44:00,
2013-03-03 13:59:00,31.0,20.0,30.06,NW,304,3.0,-999.0,63,-99.99,,,0.00,weatherlink.com 1.10,2013-03-03 18:59:00,
2013-03-03 14:14:00,30.7,20.0,30.06,NW,312,6.0,-999.0,65,-99.99,,,0.00,weatherlink.com 1.10,2013-03-03 19:14:00,
2013-03-03 14:29:00,30.5,20.0,30.05,WNW,290,5.0,-999.0,66,-99.99,,,0.00,weatherlink.com 1.10,2013-03-03 19:29:00,
2013-03-03 14:44:00,30.2,19.0,30.05,NW,309,10.0,-999.0,64,-99.99,,,0.00,weatherlink.com 1.10,2013-03-03 19:44:00,
2013-03-03 14:59:00,30.5,20.0,30.05,NNW,327,5.0,-999.0,64,-99.99,,,0.00,weatherlink.com 1.10,2013-03-03 19:59:00,
2013-03-03 15:14:00,31.4,19.0,30.05,WNW,300,4.0,-999.0,61,-99.99,,,0.00,weatherlink.com 1.10,2013-03-03 20:14:00,
2013-03-03 15:29:00,31.0,18.0,30.05,NW,308,9.0,-999.0,60,-99.99,,,0.00,weatherlink.com 1.10,2013-03-03 20:29:00,
2013-03-03 15:44:00,30.2,19.0,30.05,WNW,297,5.0,-999.0,63,-99.99,,,0.00,weatherlink.com 1.10,2013-03-03 20:44:00,
2013-03-03 15:59:00,31.5,19.0,30.05,NW,304,3.0,-999.0,59,-99.99,,,0.00,weatherlink.com 1.10,2013-03-03 20:59:00,
2013-03-03 16:15:00,31.5,20.0,30.05,WNW,294,4.0,-999.0,63,-99.99,,,0.00,weatherlink.com 1.10,2013-03-03 21:15:00,
2013-03-03 16:29:00,32.0,19.0,30.05,NW,307,11.0,-999.0,59,-99.99,,,0.00,weatherlink.com 1.10,2013-03-03 21:29:00,
2013-03-03 16:44:00,30.5,19.0,30.05,WNW,284,11.0,-999.0,63,-99.99,,,0.00,weatherlink.com 1.10,2013-03-03 21:44:00,
2013-03-03 17:00:00,30.8,19.0,30.06,WNW,299,5.0,-999.0,62,-99.99,,,0.00,weatherlink.com 1.10,2013-03-03 22:00:00,
2013-03-03 17:15:00,31.0,18.0,30.06,WNW,295,9.0,-999.0,59,-99.99,,,0.00,weatherlink.com 1.10,2013-03-03 22:15:00,
2013-03-03 17:30:00,29.9,17.0,30.06,WNW,298,7.0,-999.0,60,-99.99,,,0.00,weatherlink.com 1.10,2013-03-03 22:30:00,
2013-03-03 17:45:00,30.3,18.0,30.06,WNW,283,7.0,-999.0,61,-99.99,,,0.00,weatherlink.com 1.10,2013-03-03 22:45:00,
2013-03-03 18:00:00,29.6,18.0,30.06,WNW,290,5.0,-999.0,61,-99.99,,,0.00,weatherlink.com 1.10,2013-03-03 23:00:00,
2013-03-03 18:15:00,29.3,18.0,30.07,NW,315,2.0,-999.0,63,-99.99,,,0.00,weatherlink.com 1.10,2013-03-03 23:15:00,
2013-03-03 18:30:00,28.3,17.0,30.07,NW,313,5.0,-999.0,64,-99.99,,,0.00,weatherlink.com 1.10,2013-03-03 23:30:00,
2013-03-03 18:45:00,27.8,18.0,30.07,WNW,303,7.0,-999.0,66,-99.99,,,0.00,weatherlink.com 1.10,2013-03-03 23:45:00,
2013-03-03 19:00:00,27.4,17.0,30.07,WNW,287,2.0,-999.0,66,-99.99,,,0.00,weatherlink.com 1.10,2013-03-04 00:00:00,
2013-03-03 19:15:00,27.1,18.0,30.08,NW,315,2.0,-999.0,68,-99.99,,,0.00,weatherlink.com 1.10,2013-03-04 00:15:00,
2013-03-03 19:31:00,26.8,18.0,30.08,NW,304,3.0,-999.0,69,-99.99,,,0.00,weatherlink.com 1.10,2013-03-04 00:31:00,
2013-03-03 19:46:00,26.5,17.0,30.09,WNW,300,2.0,-999.0,68,-99.99,,,0.00,weatherlink.com 1.10,2013-03-04 00:46:00,
2013-03-03 20:00:00,26.2,17.0,30.09,NW,325,6.0,-999.0,68,-99.99,,,0.00,weatherlink.com 1.10,2013-03-04 01:00:00,
2013-03-03 20:15:00,26.0,17.0,30.09,NW,310,2.0,-999.0,69,-99.99,,,0.00,weatherlink.com 1.10,2013-03-04 01:15:00,
2013-03-03 20:31:00,25.7,17.0,30.09,NW,308,0.0,-999.0,70,-99.99,,,0.00,weatherlink.com 1.10,2013-03-04 01:31:00,
2013-03-03 20:46:00,25.3,17.0,30.09,NW,315,2.0,-999.0,71,-99.99,,,0.00,weatherlink.com 1.10,2013-03-04 01:46:00,
2013-03-03 21:01:00,25.1,17.0,30.09,NW,315,2.0,-999.0,71,-99.99,,,0.00,weatherlink.com 1.10,2013-03-04 02:01:00,
2013-03-03 21:16:00,24.7,17.0,30.09,NW,316,2.0,-999.0,72,-99.99,,,0.00,weatherlink.com 1.10,2013-03-04 02:16:00,
2013-03-03 21:31:00,24.6,17.0,30.09,NW,317,1.0,-999.0,72,-99.99,,,0.00,weatherlink.com 1.10,2013-03-04 02:31:00,
2013-03-03 21:46:00,24.2,17.0,30.09,NW,319,1.0,-999.0,73,-99.99,,,0.00,weatherlink.com 1.10,2013-03-04 02:46:00,
2013-03-03 22:01:00,23.8,17.0,30.09,NW,319,0.0,-999.0,74,-99.99,,,0.00,weatherlink.com 1.10,2013-03-04 03:01:00,
2013-03-03 22:16:00,23.0,16.0,30.09,NW,319,0.0,-999.0,75,-99.99,,,0.00,weatherlink.com 1.10,2013-03-04 03:16:00,
2013-03-03 22:32:00,22.2,16.0,30.09,NW,319,0.0,-999.0,77,-99.99,,,0.00,weatherlink.com 1.10,2013-03-04 03:32:00,
2013-03-03 22:46:00,21.8,16.0,30.09,NW,319,0.0,-999.0,78,-99.99,,,0.00,weatherlink.com 1.10,2013-03-04 03:46:00,
2013-03-03 23:01:00,21.5,16.0,30.09,NW,319,0.0,-999.0,79,-99.99,,,0.00,weatherlink.com 1.10,2013-03-04 04:01:00,
2013-03-03 23:16:00,21.1,16.0,30.09,NW,319,0.0,-999.0,80,-99.99,,,0.00,weatherlink.com 1.10,2013-03-04 04:16:00,
2013-03-03 23:31:00,20.7,16.0,30.10,NW,319,0.0,-999.0,81,-99.99,,,0.00,weatherlink.com 1.10,2013-03-04 04:31:00,
2013-03-03 23:47:00,20.5,16.0,30.10,NW,319,1.0,-999.0,82,-99.99,,,0.00,weatherlink.com 1.10,2013-03-04 04:47:00,